This is the latest recevied weather packets stored in our database for station/object AI5KP-13. If no packets are shown the sender has not sent any weather packets the latest 10 day(s).
| Time | Temp. | Humidity | Pressure | Rain* | Wind** | Luminosity | Snow |
|---|---|---|---|---|---|---|---|
| 1777150601 | 25° C | 60% | 1007.8 hPa | 0 mm | - | 499 W/m² | - |
| 1777150297 | 25° C | 60% | 1007.7 hPa | 0 mm | - | 510 W/m² | - |
| 1777149996 | 25.56° C | 60% | 1007.8 hPa | 0 mm | - | 520 W/m² | - |
| 1777149691 | 25.56° C | 60% | 1008 hPa | 0 mm | - | 533 W/m² | - |
| 1777149388 | 25° C | 61% | 1007.9 hPa | 0 mm | - | 542 W/m² | - |
| 1777149083 | 25.56° C | 60% | 1008 hPa | 0 mm | - | 553 W/m² | - |
| 1777148778 | 25.56° C | 60% | 1008 hPa | 0 mm | - | 565 W/m² | - |
| 1777148475 | 25.56° C | 59% | 1008.2 hPa | 0 mm | - | 573 W/m² | - |
| 1777148171 | 25.56° C | 57% | 1008.3 hPa | 0 mm | - | 585 W/m² | - |
| 1777147867 | 25.56° C | 57% | 1008.3 hPa | 0 mm | - | 594 W/m² | - |
| 1777147563 | 26.11° C | 59% | 1008.4 hPa | 0 mm | - | 604 W/m² | - |
| 1777147258 | 25.56° C | 58% | 1008.4 hPa | 0 mm | - | 612 W/m² | - |
| 1777146954 | 25° C | 60% | 1008.4 hPa | 0 mm | - | 620 W/m² | - |
| 1777146650 | 26.11° C | 58% | 1008.4 hPa | 0 mm | - | 629 W/m² | - |
| 1777146346 | 25.56° C | 59% | 1008.2 hPa | 0 mm | - | 637 W/m² | - |
| 1777146043 | 26.11° C | 57% | 1008.2 hPa | 0 mm | - | 645 W/m² | - |
| 1777145739 | 25.56° C | 59% | 1008.3 hPa | 0 mm | - | 653 W/m² | - |
| 1777145435 | 26.67° C | 56% | 1008.2 hPa | 0 mm | - | 660 W/m² | - |
| 1777145130 | 25.56° C | 60% | 1008.3 hPa | 0 mm | - | 667 W/m² | - |
| 1777144825 | 26.67° C | 53% | 1008.4 hPa | 0 mm | - | 673 W/m² | - |
| 1777144524 | 25.56° C | 57% | 1008.2 hPa | 0 mm | - | 664 W/m² | - |
| 1777144221 | 25.56° C | 56% | 1008.2 hPa | 0 mm | - | 685 W/m² | - |
| 1777143917 | 25.56° C | 59% | 1008.2 hPa | 0 mm | - | 690 W/m² | - |
| 1777143614 | 25.56° C | 58% | 1008.1 hPa | 0 mm | - | 696 W/m² | - |
| 1777143314 | 26.11° C | 61% | 1008.1 hPa | 0 mm | - | 695 W/m² | - |
* Rain latest hour (hover to see other rain measurements)
** Current wind speed in m/s (hover to see current wind gust speed)